sensor_id;sensor_type;location;lat;lon;timestamp;temperature;humidity
66835;HTU21D;53743;51.100;5.874;2023-07-29T00:00:00;20.99;95.44
66835;HTU21D;53743;51.100;5.874;2023-07-29T00:01:13;20.99;95.07
66835;HTU21D;53743;51.100;5.874;2023-07-29T00:02:14;21.00;95.07
66835;HTU21D;53743;51.100;5.874;2023-07-29T00:03:16;21.00;95.17
66835;HTU21D;53743;51.100;5.874;2023-07-29T00:04:17;21.00;95.26
66835;HTU21D;53743;51.100;5.874;2023-07-29T00:05:20;21.01;95.30
66835;HTU21D;53743;51.100;5.874;2023-07-29T00:06:22;21.01;95.22
66835;HTU21D;53743;51.100;5.874;2023-07-29T00:07:24;20.98;95.37
66835;HTU21D;53743;51.100;5.874;2023-07-29T00:08:25;20.96;95.44
66835;HTU21D;53743;51.100;5.874;2023-07-29T00:09:27;20.96;95.32
66835;HTU21D;53743;51.100;5.874;2023-07-29T00:10:28;20.95;95.43
66835;HTU21D;53743;51.100;5.874;2023-07-29T00:11:32;20.93;95.43
66835;HTU21D;53743;51.100;5.874;2023-07-29T00:12:35;20.93;95.62
66835;HTU21D;53743;51.100;5.874;2023-07-29T00:13:37;20.93;95.55
66835;HTU21D;53743;51.100;5.874;2023-07-29T00:14:39;20.94;95.55
66835;HTU21D;53743;51.100;5.874;2023-07-29T00:15:41;20.93;95.59
66835;HTU21D;53743;51.100;5.874;2023-07-29T00:16:42;20.94;95.66
66835;HTU21D;53743;51.100;5.874;2023-07-29T00:17:44;20.94;95.78
66835;HTU21D;53743;51.100;5.874;2023-07-29T00:18:45;20.98;95.76
66835;HTU21D;53743;51.100;5.874;2023-07-29T00:19:47;21.00;95.65
66835;HTU21D;53743;51.100;5.874;2023-07-29T00:20:48;21.03;95.57
66835;HTU21D;53743;51.100;5.874;2023-07-29T00:21:50;21.04;95.48
66835;HTU21D;53743;51.100;5.874;2023-07-29T00:22:52;21.07;95.28
66835;HTU21D;53743;51.100;5.874;2023-07-29T00:23:55;21.08;95.11
66835;HTU21D;53743;51.100;5.874;2023-07-29T00:24:58;21.11;95.01
66835;HTU21D;53743;51.100;5.874;2023-07-29T00:26:00;21.11;94.96
66835;HTU21D;53743;51.100;5.874;2023-07-29T00:27:01;21.14;95.01
66835;HTU21D;53743;51.100;5.874;2023-07-29T00:28:05;21.15;95.02
66835;HTU21D;53743;51.100;5.874;2023-07-29T00:29:06;21.17;94.80
66835;HTU21D;53743;51.100;5.874;2023-07-29T00:30:08;21.19;94.63
66835;HTU21D;53743;51.100;5.874;2023-07-29T00:31:10;21.17;94.56
66835;HTU21D;53743;51.100;5.874;2023-07-29T00:32:12;21.14;94.67
66835;HTU21D;53743;51.100;5.874;2023-07-29T00:33:13;21.13;94.90
66835;HTU21D;53743;51.100;5.874;2023-07-29T00:34:15;21.11;94.91
66835;HTU21D;53743;51.100;5.874;2023-07-29T00:35:20;21.14;94.87
66835;HTU21D;53743;51.100;5.874;2023-07-29T00:36:22;21.13;94.92
66835;HTU21D;53743;51.100;5.874;2023-07-29T00:37:23;21.11;95.07
66835;HTU21D;53743;51.100;5.874;2023-07-29T00:38:24;21.10;95.10
66835;HTU21D;53743;51.100;5.874;2023-07-29T00:39:26;21.11;95.26
66835;HTU21D;53743;51.100;5.874;2023-07-29T00:40:28;21.11;95.01
66835;HTU21D;53743;51.100;5.874;2023-07-29T00:41:30;21.14;94.93
66835;HTU21D;53743;51.100;5.874;2023-07-29T00:42:31;21.14;94.80
66835;HTU21D;53743;51.100;5.874;2023-07-29T00:43:35;21.15;94.85
66835;HTU21D;53743;51.100;5.874;2023-07-29T00:44:37;21.15;94.88
66835;HTU21D;53743;51.100;5.874;2023-07-29T00:45:41;21.19;94.71
66835;HTU21D;53743;51.100;5.874;2023-07-29T00:46:52;21.20;94.84
66835;HTU21D;53743;51.100;5.874;2023-07-29T00:47:56;21.20;94.81
66835;HTU21D;53743;51.100;5.874;2023-07-29T00:48:58;21.22;94.77
66835;HTU21D;53743;51.100;5.874;2023-07-29T00:50:00;21.23;94.82
66835;HTU21D;53743;51.100;5.874;2023-07-29T00:51:02;21.25;94.79
66835;HTU21D;53743;51.100;5.874;2023-07-29T00:52:04;21.27;94.62
66835;HTU21D;53743;51.100;5.874;2023-07-29T00:53:06;21.28;94.62
66835;HTU21D;53743;51.100;5.874;2023-07-29T00:54:08;21.29;94.49
66835;HTU21D;53743;51.100;5.874;2023-07-29T00:55:10;21.29;94.61
66835;HTU21D;53743;51.100;5.874;2023-07-29T00:56:12;21.29;94.63
66835;HTU21D;53743;51.100;5.874;2023-07-29T00:57:16;21.30;94.78
66835;HTU21D;53743;51.100;5.874;2023-07-29T00:58:20;21.30;94.85
66835;HTU21D;53743;51.100;5.874;2023-07-29T00:59:23;21.29;94.94
66835;HTU21D;53743;51.100;5.874;2023-07-29T01:00:25;21.30;94.86
66835;HTU21D;53743;51.100;5.874;2023-07-29T01:01:27;21.32;94.83
66835;HTU21D;53743;51.100;5.874;2023-07-29T01:02:29;21.30;95.14
66835;HTU21D;53743;51.100;5.874;2023-07-29T01:03:33;21.32;95.20
66835;HTU21D;53743;51.100;5.874;2023-07-29T01:04:35;21.32;95.07
66835;HTU21D;53743;51.100;5.874;2023-07-29T01:05:48;21.33;95.08
66835;HTU21D;53743;51.100;5.874;2023-07-29T01:07:14;21.34;95.04
66835;HTU21D;53743;51.100;5.874;2023-07-29T01:08:31;21.37;95.02
66835;HTU21D;53743;51.100;5.874;2023-07-29T01:09:51;21.37;94.90
66835;HTU21D;53743;51.100;5.874;2023-07-29T01:11:11;21.35;95.28
66835;HTU21D;53743;51.100;5.874;2023-07-29T01:12:35;21.38;95.13
66835;HTU21D;53743;51.100;5.874;2023-07-29T01:13:50;21.37;95.23
66835;HTU21D;53743;51.100;5.874;2023-07-29T01:15:04;21.40;95.14
66835;HTU21D;53743;51.100;5.874;2023-07-29T01:16:19;21.38;95.35
66835;HTU21D;53743;51.100;5.874;2023-07-29T01:17:31;21.39;95.02
66835;HTU21D;53743;51.100;5.874;2023-07-29T01:18:39;21.37;95.01
66835;HTU21D;53743;51.100;5.874;2023-07-29T01:19:51;21.35;95.28
66835;HTU21D;53743;51.100;5.874;2023-07-29T01:21:04;21.33;95.46
66835;HTU21D;53743;51.100;5.874;2023-07-29T01:22:10;21.31;95.59
66835;HTU21D;53743;51.100;5.874;2023-07-29T01:23:13;21.31;95.59
66835;HTU21D;53743;51.100;5.874;2023-07-29T01:24:15;21.30;95.68
66835;HTU21D;53743;51.100;5.874;2023-07-29T01:25:17;21.30;95.78
66835;HTU21D;53743;51.100;5.874;2023-07-29T01:26:18;21.31;95.81
66835;HTU21D;53743;51.100;5.874;2023-07-29T01:27:21;21.32;96.00
66835;HTU21D;53743;51.100;5.874;2023-07-29T01:28:22;21.32;95.93
66835;HTU21D;53743;51.100;5.874;2023-07-29T01:29:25;21.33;95.87
66835;HTU21D;53743;51.100;5.874;2023-07-29T01:30:33;21.34;95.81
66835;HTU21D;53743;51.100;5.874;2023-07-29T01:31:44;21.33;95.86
66835;HTU21D;53743;51.100;5.874;2023-07-29T01:32:54;21.31;95.84
66835;HTU21D;53743;51.100;5.874;2023-07-29T01:34:14;21.32;95.90
66835;HTU21D;53743;51.100;5.874;2023-07-29T01:35:31;21.32;96.20
66835;HTU21D;53743;51.100;5.874;2023-07-29T01:36:37;21.31;96.06
66835;HTU21D;53743;51.100;5.874;2023-07-29T01:37:46;21.30;95.91
66835;HTU21D;53743;51.100;5.874;2023-07-29T01:38:52;21.31;95.97
66835;HTU21D;53743;51.100;5.874;2023-07-29T01:39:59;21.31;95.93
66835;HTU21D;53743;51.100;5.874;2023-07-29T01:41:02;21.31;96.08
66835;HTU21D;53743;51.100;5.874;2023-07-29T01:42:07;21.31;96.14
66835;HTU21D;53743;51.100;5.874;2023-07-29T01:43:09;21.33;96.10
66835;HTU21D;53743;51.100;5.874;2023-07-29T01:44:13;21.33;95.95
66835;HTU21D;53743;51.100;5.874;2023-07-29T01:45:15;21.32;95.93
66835;HTU21D;53743;51.100;5.874;2023-07-29T01:46:17;21.31;96.04
66835;HTU21D;53743;51.100;5.874;2023-07-29T01:47:18;21.31;96.04
66835;HTU21D;53743;51.100;5.874;2023-07-29T01:48:22;21.32;96.07
66835;HTU21D;53743;51.100;5.874;2023-07-29T01:49:24;21.31;96.12
66835;HTU21D;53743;51.100;5.874;2023-07-29T01:50:27;21.27;97.36
66835;HTU21D;53743;51.100;5.874;2023-07-29T01:51:28;21.30;96.29
66835;HTU21D;53743;51.100;5.874;2023-07-29T01:52:30;21.29;96.38
66835;HTU21D;53743;51.100;5.874;2023-07-29T01:53:31;21.28;96.58
66835;HTU21D;53743;51.100;5.874;2023-07-29T01:54:33;21.21;97.12
66835;HTU21D;53743;51.100;5.874;2023-07-29T01:55:35;21.16;97.72
66835;HTU21D;53743;51.100;5.874;2023-07-29T01:56:38;21.14;97.41
66835;HTU21D;53743;51.100;5.874;2023-07-29T01:57:39;21.15;97.15
66835;HTU21D;53743;51.100;5.874;2023-07-29T01:58:41;21.11;97.79
66835;HTU21D;53743;51.100;5.874;2023-07-29T01:59:42;21.09;97.39
66835;HTU21D;53743;51.100;5.874;2023-07-29T02:00:44;21.07;97.37
66835;HTU21D;53743;51.100;5.874;2023-07-29T02:01:45;21.07;97.78
66835;HTU21D;53743;51.100;5.874;2023-07-29T02:02:48;21.04;98.02
66835;HTU21D;53743;51.100;5.874;2023-07-29T02:03:49;21.01;98.32
66835;HTU21D;53743;51.100;5.874;2023-07-29T02:04:55;21.01;98.00
66835;HTU21D;53743;51.100;5.874;2023-07-29T02:05:56;21.01;98.16
66835;HTU21D;53743;51.100;5.874;2023-07-29T02:06:58;21.01;98.44
66835;HTU21D;53743;51.100;5.874;2023-07-29T02:07:59;21.01;98.30
66835;HTU21D;53743;51.100;5.874;2023-07-29T02:09:01;21.00;98.68
66835;HTU21D;53743;51.100;5.874;2023-07-29T02:10:05;21.00;98.55
66835;HTU21D;53743;51.100;5.874;2023-07-29T02:11:09;21.03;98.49
66835;HTU21D;53743;51.100;5.874;2023-07-29T02:12:11;21.03;98.57
66835;HTU21D;53743;51.100;5.874;2023-07-29T02:13:13;21.03;98.95
66835;HTU21D;53743;51.100;5.874;2023-07-29T02:14:14;21.03;98.63
66835;HTU21D;53743;51.100;5.874;2023-07-29T02:15:16;20.99;98.78
66835;HTU21D;53743;51.100;5.874;2023-07-29T02:16:17;20.96;99.68
66835;HTU21D;53743;51.100;5.874;2023-07-29T02:17:19;20.94;99.44
66835;HTU21D;53743;51.100;5.874;2023-07-29T02:18:20;20.90;99.19
66835;HTU21D;53743;51.100;5.874;2023-07-29T02:19:22;20.92;99.09
66835;HTU21D;53743;51.100;5.874;2023-07-29T02:20:23;20.91;99.21
66835;HTU21D;53743;51.100;5.874;2023-07-29T02:21:26;20.92;98.93
66835;HTU21D;53743;51.100;5.874;2023-07-29T02:22:27;20.94;98.91
66835;HTU21D;53743;51.100;5.874;2023-07-29T02:23:29;20.93;98.93
66835;HTU21D;53743;51.100;5.874;2023-07-29T02:24:30;20.91;99.03
66835;HTU21D;53743;51.100;5.874;2023-07-29T02:25:35;20.92;98.94
66835;HTU21D;53743;51.100;5.874;2023-07-29T02:26:38;20.93;98.81
66835;HTU21D;53743;51.100;5.874;2023-07-29T02:27:40;20.91;98.87
66835;HTU21D;53743;51.100;5.874;2023-07-29T02:28:42;20.87;98.85
66835;HTU21D;53743;51.100;5.874;2023-07-29T02:29:43;20.86;99.19
66835;HTU21D;53743;51.100;5.874;2023-07-29T02:30:45;20.83;99.32
66835;HTU21D;53743;51.100;5.874;2023-07-29T02:31:47;20.84;99.17
66835;HTU21D;53743;51.100;5.874;2023-07-29T02:32:49;20.85;99.06
66835;HTU21D;53743;51.100;5.874;2023-07-29T02:33:51;20.87;98.90
66835;HTU21D;53743;51.100;5.874;2023-07-29T02:34:54;20.85;99.09
66835;HTU21D;53743;51.100;5.874;2023-07-29T02:35:55;20.85;99.00
66835;HTU21D;53743;51.100;5.874;2023-07-29T02:36:57;20.85;98.80
66835;HTU21D;53743;51.100;5.874;2023-07-29T02:37:58;20.86;98.69
66835;HTU21D;53743;51.100;5.874;2023-07-29T02:39:00;20.85;98.89
66835;HTU21D;53743;51.100;5.874;2023-07-29T02:40:02;20.86;98.98
66835;HTU21D;53743;51.100;5.874;2023-07-29T02:41:06;20.85;99.04
66835;HTU21D;53743;51.100;5.874;2023-07-29T02:42:10;20.86;98.90
66835;HTU21D;53743;51.100;5.874;2023-07-29T02:43:13;20.85;98.79
66835;HTU21D;53743;51.100;5.874;2023-07-29T02:44:14;20.84;98.93
66835;HTU21D;53743;51.100;5.874;2023-07-29T02:45:17;20.80;99.08
66835;HTU21D;53743;51.100;5.874;2023-07-29T02:46:18;20.77;99.30
66835;HTU21D;53743;51.100;5.874;2023-07-29T02:47:19;20.76;99.48
66835;HTU21D;53743;51.100;5.874;2023-07-29T02:48:21;20.75;99.53
66835;HTU21D;53743;51.100;5.874;2023-07-29T02:49:22;20.75;99.64
66835;HTU21D;53743;51.100;5.874;2023-07-29T02:50:25;20.73;99.60
66835;HTU21D;53743;51.100;5.874;2023-07-29T02:51:26;20.72;99.61
66835;HTU21D;53743;51.100;5.874;2023-07-29T02:52:28;20.74;99.63
66835;HTU21D;53743;51.100;5.874;2023-07-29T02:53:29;20.72;99.61
66835;HTU21D;53743;51.100;5.874;2023-07-29T02:54:31;20.75;99.41
66835;HTU21D;53743;51.100;5.874;2023-07-29T02:55:32;20.76;99.14
66835;HTU21D;53743;51.100;5.874;2023-07-29T02:56:33;20.75;99.24
66835;HTU21D;53743;51.100;5.874;2023-07-29T02:57:37;20.75;99.29
66835;HTU21D;53743;51.100;5.874;2023-07-29T02:58:38;20.76;99.02
66835;HTU21D;53743;51.100;5.874;2023-07-29T02:59:42;20.75;99.06
66835;HTU21D;53743;51.100;5.874;2023-07-29T03:00:43;20.75;99.09
66835;HTU21D;53743;51.100;5.874;2023-07-29T03:01:45;20.74;98.97
66835;HTU21D;53743;51.100;5.874;2023-07-29T03:02:46;20.77;98.79
66835;HTU21D;53743;51.100;5.874;2023-07-29T03:03:48;20.77;98.58
66835;HTU21D;53743;51.100;5.874;2023-07-29T03:04:49;20.74;98.38
66835;HTU21D;53743;51.100;5.874;2023-07-29T03:05:58;20.71;98.54
66835;HTU21D;53743;51.100;5.874;2023-07-29T03:07:00;20.69;98.47
66835;HTU21D;53743;51.100;5.874;2023-07-29T03:08:03;20.68;98.35
66835;HTU21D;53743;51.100;5.874;2023-07-29T03:09:04;20.64;98.42
66835;HTU21D;53743;51.100;5.874;2023-07-29T03:10:07;20.64;97.32
66835;HTU21D;53743;51.100;5.874;2023-07-29T03:11:10;20.64;97.91
66835;HTU21D;53743;51.100;5.874;2023-07-29T03:12:13;20.64;97.52
66835;HTU21D;53743;51.100;5.874;2023-07-29T03:13:16;20.63;97.13
66835;HTU21D;53743;51.100;5.874;2023-07-29T03:14:18;20.60;96.98
66835;HTU21D;53743;51.100;5.874;2023-07-29T03:15:19;20.58;96.87
66835;HTU21D;53743;51.100;5.874;2023-07-29T03:16:24;20.54;96.60
66835;HTU21D;53743;51.100;5.874;2023-07-29T03:17:29;20.49;96.58
66835;HTU21D;53743;51.100;5.874;2023-07-29T03:18:31;20.45;96.23
66835;HTU21D;53743;51.100;5.874;2023-07-29T03:19:32;20.44;95.63
66835;HTU21D;53743;51.100;5.874;2023-07-29T03:20:34;20.40;95.93
66835;HTU21D;53743;51.100;5.874;2023-07-29T03:21:36;20.39;95.49
66835;HTU21D;53743;51.100;5.874;2023-07-29T03:22:38;20.34;95.26
66835;HTU21D;53743;51.100;5.874;2023-07-29T03:23:39;20.31;95.50
66835;HTU21D;53743;51.100;5.874;2023-07-29T03:24:41;20.27;95.36
66835;HTU21D;53743;51.100;5.874;2023-07-29T03:25:43;20.25;95.33
66835;HTU21D;53743;51.100;5.874;2023-07-29T03:26:45;20.25;95.28
66835;HTU21D;53743;51.100;5.874;2023-07-29T03:27:46;20.22;95.16
66835;HTU21D;53743;51.100;5.874;2023-07-29T03:28:51;20.24;94.91
66835;HTU21D;53743;51.100;5.874;2023-07-29T03:29:52;20.21;94.41
66835;HTU21D;53743;51.100;5.874;2023-07-29T03:30:53;20.17;94.25
66835;HTU21D;53743;51.100;5.874;2023-07-29T03:31:55;20.12;94.32
66835;HTU21D;53743;51.100;5.874;2023-07-29T03:32:56;20.10;94.46
66835;HTU21D;53743;51.100;5.874;2023-07-29T03:33:58;20.13;94.23
66835;HTU21D;53743;51.100;5.874;2023-07-29T03:35:00;20.11;94.07
66835;HTU21D;53743;51.100;5.874;2023-07-29T03:36:02;20.06;94.34
66835;HTU21D;53743;51.100;5.874;2023-07-29T03:37:03;20.04;94.56
66835;HTU21D;53743;51.100;5.874;2023-07-29T03:38:06;20.05;94.45
66835;HTU21D;53743;51.100;5.874;2023-07-29T03:39:07;20.04;94.29
66835;HTU21D;53743;51.100;5.874;2023-07-29T03:40:10;20.02;94.21
66835;HTU21D;53743;51.100;5.874;2023-07-29T03:41:11;20.00;94.18
66835;HTU21D;53743;51.100;5.874;2023-07-29T03:42:13;19.99;94.28
66835;HTU21D;53743;51.100;5.874;2023-07-29T03:43:14;19.98;94.05
66835;HTU21D;53743;51.100;5.874;2023-07-29T03:44:17;19.96;94.12
66835;HTU21D;53743;51.100;5.874;2023-07-29T03:45:20;19.97;93.89
66835;HTU21D;53743;51.100;5.874;2023-07-29T03:46:21;19.94;93.93
66835;HTU21D;53743;51.100;5.874;2023-07-29T03:47:23;19.91;93.85
66835;HTU21D;53743;51.100;5.874;2023-07-29T03:48:26;19.94;93.71
66835;HTU21D;53743;51.100;5.874;2023-07-29T03:49:28;19.92;93.45
66835;HTU21D;53743;51.100;5.874;2023-07-29T03:50:30;19.92;93.45
66835;HTU21D;53743;51.100;5.874;2023-07-29T03:51:32;19.89;93.55
66835;HTU21D;53743;51.100;5.874;2023-07-29T03:52:33;19.86;93.78
66835;HTU21D;53743;51.100;5.874;2023-07-29T03:53:35;19.83;93.37
66835;HTU21D;53743;51.100;5.874;2023-07-29T03:54:36;19.84;93.53
66835;HTU21D;53743;51.100;5.874;2023-07-29T03:55:38;19.83;93.44
66835;HTU21D;53743;51.100;5.874;2023-07-29T03:56:40;19.81;93.28
66835;HTU21D;53743;51.100;5.874;2023-07-29T03:57:42;19.77;93.61
66835;HTU21D;53743;51.100;5.874;2023-07-29T03:58:43;19.75;93.72
66835;HTU21D;53743;51.100;5.874;2023-07-29T03:59:50;19.76;93.91
66835;HTU21D;53743;51.100;5.874;2023-07-29T04:00:51;19.76;93.74
66835;HTU21D;53743;51.100;5.874;2023-07-29T04:01:53;19.74;93.82
66835;HTU21D;53743;51.100;5.874;2023-07-29T04:02:55;19.71;93.94
66835;HTU21D;53743;51.100;5.874;2023-07-29T04:03:57;19.73;93.91
66835;HTU21D;53743;51.100;5.874;2023-07-29T04:04:58;19.73;93.86
66835;HTU21D;53743;51.100;5.874;2023-07-29T04:06:01;19.71;93.71
66835;HTU21D;53743;51.100;5.874;2023-07-29T04:07:02;19.71;93.59
66835;HTU21D;53743;51.100;5.874;2023-07-29T04:08:04;19.68;93.64
66835;HTU21D;53743;51.100;5.874;2023-07-29T04:09:05;19.68;93.77
66835;HTU21D;53743;51.100;5.874;2023-07-29T04:10:09;19.65;93.84
66835;HTU21D;53743;51.100;5.874;2023-07-29T04:11:11;19.67;93.55
66835;HTU21D;53743;51.100;5.874;2023-07-29T04:12:12;19.65;93.77
66835;HTU21D;53743;51.100;5.874;2023-07-29T04:13:14;19.61;93.78
66835;HTU21D;53743;51.100;5.874;2023-07-29T04:14:15;19.60;93.76
66835;HTU21D;53743;51.100;5.874;2023-07-29T04:15:19;19.58;93.82
66835;HTU21D;53743;51.100;5.874;2023-07-29T04:16:20;19.58;93.86
66835;HTU21D;53743;51.100;5.874;2023-07-29T04:17:22;19.59;93.98
66835;HTU21D;53743;51.100;5.874;2023-07-29T04:18:23;19.60;93.95
66835;HTU21D;53743;51.100;5.874;2023-07-29T04:19:25;19.61;93.82
66835;HTU21D;53743;51.100;5.874;2023-07-29T04:20:26;19.61;93.81
66835;HTU21D;53743;51.100;5.874;2023-07-29T04:21:31;19.63;93.80
66835;HTU21D;53743;51.100;5.874;2023-07-29T04:22:32;19.65;93.66
66835;HTU21D;53743;51.100;5.874;2023-07-29T04:23:34;19.65;93.66
66835;HTU21D;53743;51.100;5.874;2023-07-29T04:24:36;19.66;93.49
66835;HTU21D;53743;51.100;5.874;2023-07-29T04:25:38;19.65;93.49
66835;HTU21D;53743;51.100;5.874;2023-07-29T04:26:39;19.62;93.12
66835;HTU21D;53743;51.100;5.874;2023-07-29T04:27:41;19.60;93.56
66835;HTU21D;53743;51.100;5.874;2023-07-29T04:28:42;19.62;93.50
66835;HTU21D;53743;51.100;5.874;2023-07-29T04:29:44;19.62;93.34
66835;HTU21D;53743;51.100;5.874;2023-07-29T04:30:47;19.57;93.36
66835;HTU21D;53743;51.100;5.874;2023-07-29T04:31:49;19.57;93.48
66835;HTU21D;53743;51.100;5.874;2023-07-29T04:32:50;19.55;93.29
66835;HTU21D;53743;51.100;5.874;2023-07-29T04:33:52;19.53;93.37
66835;HTU21D;53743;51.100;5.874;2023-07-29T04:34:53;19.51;93.17
66835;HTU21D;53743;51.100;5.874;2023-07-29T04:35:55;19.51;93.04
66835;HTU21D;53743;51.100;5.874;2023-07-29T04:36:56;19.50;93.43
66835;HTU21D;53743;51.100;5.874;2023-07-29T04:37:58;19.45;93.46
66835;HTU21D;53743;51.100;5.874;2023-07-29T04:38:59;19.41;93.88
66835;HTU21D;53743;51.100;5.874;2023-07-29T04:40:01;19.43;93.74
66835;HTU21D;53743;51.100;5.874;2023-07-29T04:41:03;19.41;93.22
66835;HTU21D;53743;51.100;5.874;2023-07-29T04:42:07;19.42;93.22
66835;HTU21D;53743;51.100;5.874;2023-07-29T04:43:09;19.39;93.48
66835;HTU21D;53743;51.100;5.874;2023-07-29T04:44:11;19.39;93.49
66835;HTU21D;53743;51.100;5.874;2023-07-29T04:45:13;19.41;93.36
66835;HTU21D;53743;51.100;5.874;2023-07-29T04:46:16;19.39;93.32
66835;HTU21D;53743;51.100;5.874;2023-07-29T04:47:17;19.41;93.27
66835;HTU21D;53743;51.100;5.874;2023-07-29T04:48:19;19.40;93.25
66835;HTU21D;53743;51.100;5.874;2023-07-29T04:49:21;19.40;93.36
66835;HTU21D;53743;51.100;5.874;2023-07-29T04:50:23;19.41;93.29
66835;HTU21D;53743;51.100;5.874;2023-07-29T04:51:24;19.40;93.19
66835;HTU21D;53743;51.100;5.874;2023-07-29T04:52:25;19.41;93.15
66835;HTU21D;53743;51.100;5.874;2023-07-29T04:53:27;19.45;92.80
66835;HTU21D;53743;51.100;5.874;2023-07-29T04:54:28;19.43;92.50
66835;HTU21D;53743;51.100;5.874;2023-07-29T04:55:30;19.43;92.70
66835;HTU21D;53743;51.100;5.874;2023-07-29T04:56:31;19.44;92.79
66835;HTU21D;53743;51.100;5.874;2023-07-29T04:57:33;19.46;92.69
66835;HTU21D;53743;51.100;5.874;2023-07-29T04:58:35;19.47;92.57
66835;HTU21D;53743;51.100;5.874;2023-07-29T04:59:37;19.48;92.54
66835;HTU21D;53743;51.100;5.874;2023-07-29T05:00:39;19.52;92.45
66835;HTU21D;53743;51.100;5.874;2023-07-29T05:01:41;19.56;92.28
66835;HTU21D;53743;51.100;5.874;2023-07-29T05:02:43;19.59;92.23
66835;HTU21D;53743;51.100;5.874;2023-07-29T05:03:44;19.61;92.19
66835;HTU21D;53743;51.100;5.874;2023-07-29T05:04:47;19.62;92.11
66835;HTU21D;53743;51.100;5.874;2023-07-29T05:05:48;19.65;92.13
66835;HTU21D;53743;51.100;5.874;2023-07-29T05:06:52;19.67;92.10
66835;HTU21D;53743;51.100;5.874;2023-07-29T05:07:54;19.67;92.07
66835;HTU21D;53743;51.100;5.874;2023-07-29T05:08:56;19.68;92.22
66835;HTU21D;53743;51.100;5.874;2023-07-29T05:09:58;19.67;92.21
66835;HTU21D;53743;51.100;5.874;2023-07-29T05:11:00;19.69;92.20
66835;HTU21D;53743;51.100;5.874;2023-07-29T05:12:01;19.69;92.21
66835;HTU21D;53743;51.100;5.874;2023-07-29T05:13:04;19.71;92.28
66835;HTU21D;53743;51.100;5.874;2023-07-29T05:14:05;19.69;92.55
66835;HTU21D;53743;51.100;5.874;2023-07-29T05:15:09;19.68;92.50
66835;HTU21D;53743;51.100;5.874;2023-07-29T05:16:11;19.65;92.73
66835;HTU21D;53743;51.100;5.874;2023-07-29T05:17:14;19.65;92.95
66835;HTU21D;53743;51.100;5.874;2023-07-29T05:18:16;19.65;93.08
66835;HTU21D;53743;51.100;5.874;2023-07-29T05:19:18;19.67;93.19
66835;HTU21D;53743;51.100;5.874;2023-07-29T05:20:19;19.63;93.27
66835;HTU21D;53743;51.100;5.874;2023-07-29T05:21:22;19.67;93.40
66835;HTU21D;53743;51.100;5.874;2023-07-29T05:22:23;19.68;93.36
66835;HTU21D;53743;51.100;5.874;2023-07-29T05:23:25;19.70;93.34
66835;HTU21D;53743;51.100;5.874;2023-07-29T05:24:26;19.70;93.49
66835;HTU21D;53743;51.100;5.874;2023-07-29T05:25:29;19.71;93.52
66835;HTU21D;53743;51.100;5.874;2023-07-29T05:26:30;19.75;93.55
66835;HTU21D;53743;51.100;5.874;2023-07-29T05:27:32;19.77;93.62
66835;HTU21D;53743;51.100;5.874;2023-07-29T05:28:33;19.80;93.46
66835;HTU21D;53743;51.100;5.874;2023-07-29T05:29:35;19.85;93.34
66835;HTU21D;53743;51.100;5.874;2023-07-29T05:30:36;19.86;93.24
66835;HTU21D;53743;51.100;5.874;2023-07-29T05:31:41;19.87;93.32
66835;HTU21D;53743;51.100;5.874;2023-07-29T05:32:43;19.89;93.27
66835;HTU21D;53743;51.100;5.874;2023-07-29T05:33:45;19.90;92.88
66835;HTU21D;53743;51.100;5.874;2023-07-29T05:34:47;19.88;92.90
66835;HTU21D;53743;51.100;5.874;2023-07-29T05:35:49;19.87;93.22
66835;HTU21D;53743;51.100;5.874;2023-07-29T05:36:50;19.88;92.97
66835;HTU21D;53743;51.100;5.874;2023-07-29T05:37:53;19.88;93.01
66835;HTU21D;53743;51.100;5.874;2023-07-29T05:38:54;19.84;93.18
66835;HTU21D;53743;51.100;5.874;2023-07-29T05:39:56;19.86;93.14
66835;HTU21D;53743;51.100;5.874;2023-07-29T05:40:57;19.87;93.08
66835;HTU21D;53743;51.100;5.874;2023-07-29T05:41:59;19.87;93.15
66835;HTU21D;53743;51.100;5.874;2023-07-29T05:43:03;19.90;93.17
66835;HTU21D;53743;51.100;5.874;2023-07-29T05:44:05;19.91;93.06
66835;HTU21D;53743;51.100;5.874;2023-07-29T05:45:07;19.96;93.11
66835;HTU21D;53743;51.100;5.874;2023-07-29T05:46:10;19.98;92.96
66835;HTU21D;53743;51.100;5.874;2023-07-29T05:47:11;20.02;92.76
66835;HTU21D;53743;51.100;5.874;2023-07-29T05:48:15;20.07;92.53
66835;HTU21D;53743;51.100;5.874;2023-07-29T05:49:16;20.09;92.47
66835;HTU21D;53743;51.100;5.874;2023-07-29T05:50:18;20.10;92.34
66835;HTU21D;53743;51.100;5.874;2023-07-29T05:51:19;20.16;92.05
66835;HTU21D;53743;51.100;5.874;2023-07-29T05:52:21;20.16;91.89
66835;HTU21D;53743;51.100;5.874;2023-07-29T05:53:22;20.19;91.68
66835;HTU21D;53743;51.100;5.874;2023-07-29T05:54:24;20.22;91.61
66835;HTU21D;53743;51.100;5.874;2023-07-29T05:55:26;20.25;91.40
66835;HTU21D;53743;51.100;5.874;2023-07-29T05:56:28;20.29;91.50
66835;HTU21D;53743;51.100;5.874;2023-07-29T05:57:30;20.40;91.54
66835;HTU21D;53743;51.100;5.874;2023-07-29T05:58:32;20.54;91.40
66835;HTU21D;53743;51.100;5.874;2023-07-29T05:59:33;20.66;90.82
66835;HTU21D;53743;51.100;5.874;2023-07-29T06:00:35;20.80;90.28
66835;HTU21D;53743;51.100;5.874;2023-07-29T06:01:36;20.94;89.86
66835;HTU21D;53743;51.100;5.874;2023-07-29T06:02:38;21.11;89.21
66835;HTU21D;53743;51.100;5.874;2023-07-29T06:03:43;21.29;88.63
66835;HTU21D;53743;51.100;5.874;2023-07-29T06:04:46;21.44;87.53
66835;HTU21D;53743;51.100;5.874;2023-07-29T06:05:49;21.60;87.15
66835;HTU21D;53743;51.100;5.874;2023-07-29T06:06:50;21.84;86.56
66835;HTU21D;53743;51.100;5.874;2023-07-29T06:07:52;22.08;85.64
66835;HTU21D;53743;51.100;5.874;2023-07-29T06:08:53;22.21;84.42
66835;HTU21D;53743;51.100;5.874;2023-07-29T06:09:55;22.25;82.97
66835;HTU21D;53743;51.100;5.874;2023-07-29T06:10:56;22.24;82.79
66835;HTU21D;53743;51.100;5.874;2023-07-29T06:11:59;22.20;82.55
66835;HTU21D;53743;51.100;5.874;2023-07-29T06:13:00;22.12;82.12
66835;HTU21D;53743;51.100;5.874;2023-07-29T06:14:02;22.08;82.65
66835;HTU21D;53743;51.100;5.874;2023-07-29T06:15:03;22.06;82.87
66835;HTU21D;53743;51.100;5.874;2023-07-29T06:16:06;22.08;82.92
66835;HTU21D;53743;51.100;5.874;2023-07-29T06:17:08;22.21;82.10
66835;HTU21D;53743;51.100;5.874;2023-07-29T06:18:11;22.38;82.57
66835;HTU21D;53743;51.100;5.874;2023-07-29T06:19:15;22.63;81.98
66835;HTU21D;53743;51.100;5.874;2023-07-29T06:20:16;22.91;80.94
66835;HTU21D;53743;51.100;5.874;2023-07-29T06:21:19;23.23;79.89
66835;HTU21D;53743;51.100;5.874;2023-07-29T06:22:20;23.47;77.64
66835;HTU21D;53743;51.100;5.874;2023-07-29T06:23:22;23.68;77.28
66835;HTU21D;53743;51.100;5.874;2023-07-29T06:24:24;23.89;76.79
66835;HTU21D;53743;51.100;5.874;2023-07-29T06:25:26;24.06;75.21
66835;HTU21D;53743;51.100;5.874;2023-07-29T06:26:27;24.25;75.78
66835;HTU21D;53743;51.100;5.874;2023-07-29T06:27:29;24.72;73.22
66835;HTU21D;53743;51.100;5.874;2023-07-29T06:28:30;25.21;66.38
66835;HTU21D;53743;51.100;5.874;2023-07-29T06:29:32;25.53;69.45